Time;durP1;ratioP1;P1;durP2;ratioP2;P2;SDS_P1;SDS_P2;PMS_P1;PMS_P2;Temp;Humidity;BMP_temperature;BMP_pressure;BME280_temperature;BME280_humidity;BME280_pressure;Samples;Min_cycle;Max_cycle;Signal;HPM_P1;HPM_P2
2022/03/12 00:00:31;;;;;;;;;;;;;;;16.92;54.85;99584.84;2073027;28;20287;-54
2022/03/12 00:01:33;;;;;;;;;;;;;;;16.91;54.77;99589.34;2069468;28;19929;-57
2022/03/12 00:02:34;;;;;;;;;;;;;;;16.91;54.77;99580.47;2067335;28;20108;-54
2022/03/12 00:03:37;;;;;;;;;;;;;;;16.91;54.81;99589.34;2073277;28;20032;-57
2022/03/12 00:04:38;;;;;;;;;;;;;;;16.90;54.77;99586.84;2072204;28;20310;-57
2022/03/12 00:05:50;;;;;;;;;;;;;;;16.90;54.84;99586.84;2070115;28;20040;-58
2022/03/12 00:06:52;;;;;;;;;;;;;;;16.89;54.86;99585.19;2069605;28;20020;-56
2022/03/12 00:07:52;;;;;;;;;;;;;;;16.89;54.84;99588.69;2070917;28;19932;-55
2022/03/12 00:08:54;;;;;;;;;;;;;;;16.87;54.76;99581.81;2070612;28;19968;-56
2022/03/12 00:09:55;;;;;;;;;;;;;;;16.87;54.81;99588.00;2064241;28;20478;-56
2022/03/12 00:10:58;;;;;;;;;;;;;;;16.88;54.90;99589.69;2070922;28;20299;-56
2022/03/12 00:12:00;;;;;;;;;;;;;;;16.88;54.81;99584.34;2073503;28;20458;-56
2022/03/12 00:13:02;;;;;;;;;;;;;;;16.85;54.84;99573.94;2068279;28;20023;-56
2022/03/12 00:14:05;;;;;;;;;;;;;;;16.86;54.81;99580.16;2071818;28;19929;-57
2022/03/12 00:15:09;;;;;;;;;;;;;;;16.86;54.79;99582.84;2069206;28;19929;-59
2022/03/12 00:16:13;;;;;;;;;;;;;;;16.83;54.90;99573.28;2070709;28;19929;-54
2022/03/12 00:17:14;;;;;;;;;;;;;;;16.84;54.83;99583.00;2072140;28;19925;-57
2022/03/12 00:18:20;;;;;;;;;;;;;;;16.83;54.82;99583.19;2067194;28;22521;-58
2022/03/12 00:19:22;;;;;;;;;;;;;;;16.82;54.90;99581.47;2063394;28;19996;-59
2022/03/12 00:20:26;;;;;;;;;;;;;;;16.81;54.98;99591.38;2070145;28;19971;-57
2022/03/12 00:21:28;;;;;;;;;;;;;;;16.80;54.84;99580.81;2070489;28;19933;-58
2022/03/12 00:22:30;;;;;;;;;;;;;;;16.79;54.82;99581.81;2072028;28;19964;-56
2022/03/12 00:23:30;;;;;;;;;;;;;;;16.79;54.85;99585.34;2070168;28;19929;-57
2022/03/12 00:24:34;;;;;;;;;;;;;;;16.79;54.89;99584.50;2070121;28;20303;-57
2022/03/12 00:25:37;;;;;;;;;;;;;;;16.78;54.88;99582.84;2072817;28;19929;-58
2022/03/12 00:26:43;;;;;;;;;;;;;;;16.78;54.79;99589.03;2071510;28;19929;-56
2022/03/12 00:27:44;;;;;;;;;;;;;;;16.76;54.88;99588.31;2073243;28;19929;-56
2022/03/12 00:28:45;;;;;;;;;;;;;;;16.77;54.89;99591.88;2062699;28;20467;-57
2022/03/12 00:29:48;;;;;;;;;;;;;;;16.75;54.97;99587.50;2072024;28;20215;-58
2022/03/12 00:30:50;;;;;;;;;;;;;;;16.75;54.88;99590.16;2073315;28;19940;-55
2022/03/12 00:31:53;;;;;;;;;;;;;;;16.74;54.75;99587.66;2070185;28;20196;-56
2022/03/12 00:32:55;;;;;;;;;;;;;;;16.73;54.92;99586.81;2070305;28;19948;-57
2022/03/12 00:33:56;;;;;;;;;;;;;;;16.73;54.82;99594.84;2072400;28;19979;-56
2022/03/12 00:34:58;;;;;;;;;;;;;;;16.73;54.84;99591.34;2069916;28;19933;-57
2022/03/12 00:36:00;;;;;;;;;;;;;;;16.72;54.85;99593.19;2072566;28;20296;-57
2022/03/12 00:37:02;;;;;;;;;;;;;;;16.70;54.89;99592.50;2059223;28;20016;-57
2022/03/12 00:38:03;;;;;;;;;;;;;;;16.69;54.98;99585.50;2060115;28;19960;-57
2022/03/12 00:39:05;;;;;;;;;;;;;;;16.70;54.95;99589.00;2063272;28;19926;-57
2022/03/12 00:40:06;;;;;;;;;;;;;;;16.68;54.93;99594.50;2063375;28;19933;-57
2022/03/12 00:41:07;;;;;;;;;;;;;;;16.68;54.85;99585.66;2062240;28;20292;-55
2022/03/12 00:42:08;;;;;;;;;;;;;;;16.67;54.90;99595.53;2062146;28;21018;-57
2022/03/12 00:43:10;;;;;;;;;;;;;;;16.67;54.93;99592.03;2063782;28;19984;-57
2022/03/12 00:44:12;;;;;;;;;;;;;;;16.68;54.97;99593.69;2062438;28;20369;-58
2022/03/12 00:45:13;;;;;;;;;;;;;;;16.65;54.93;99594.03;2059116;28;19988;-57
2022/03/12 00:46:15;;;;;;;;;;;;;;;16.64;54.91;99590.50;2061756;28;19930;-58
2022/03/12 00:47:15;;;;;;;;;;;;;;;16.64;54.98;99595.88;2063731;28;19930;-57
2022/03/12 00:48:17;;;;;;;;;;;;;;;16.64;54.79;99595.88;2064261;28;20448;-58
2022/03/12 00:49:17;;;;;;;;;;;;;;;16.63;54.82;99587.97;2061390;28;20303;-57
2022/03/12 00:50:20;;;;;;;;;;;;;;;16.62;54.84;99589.84;2062494;28;19937;-57
2022/03/12 00:51:21;;;;;;;;;;;;;;;16.62;54.86;99583.66;2064679;28;20304;-57
2022/03/12 00:52:23;;;;;;;;;;;;;;;16.61;55.04;99590.03;2062639;28;19970;-55
2022/03/12 00:53:23;;;;;;;;;;;;;;;16.61;54.91;99593.53;2058494;28;19937;-55
2022/03/12 00:54:25;;;;;;;;;;;;;;;16.60;55.03;99580.28;2061443;28;19936;-58
2022/03/12 00:55:26;;;;;;;;;;;;;;;16.59;55.01;99586.66;2064462;28;19927;-56
2022/03/12 00:56:27;;;;;;;;;;;;;;;16.58;54.97;99588.50;2064448;28;20718;-56
2022/03/12 00:57:28;;;;;;;;;;;;;;;16.58;54.96;99585.00;2062757;28;20288;-57
2022/03/12 00:58:29;;;;;;;;;;;;;;;16.57;55.07;99591.34;2062359;28;19926;-56
2022/03/12 00:59:30;;;;;;;;;;;;;;;16.56;54.86;99593.19;2063943;28;20792;-56
2022/03/12 01:00:32;;;;;;;;;;;;;;;16.56;55.02;99595.03;2057764;28;19926;-57
2022/03/12 01:01:34;;;;;;;;;;;;;;;16.54;55.04;99592.50;2058854;28;19933;-56
2022/03/12 01:02:34;;;;;;;;;;;;;;;16.54;54.97;99593.34;2063609;28;19933;-55
2022/03/12 01:03:36;;;;;;;;;;;;;;;16.53;55.10;99596.19;2064468;28;20947;-58
2022/03/12 01:04:37;;;;;;;;;;;;;;;16.53;55.07;99596.19;2061068;28;19929;-57
2022/03/12 01:05:53;;;;;;;;;;;;;;;16.52;55.06;99594.53;2063177;28;20031;-57
2022/03/12 01:06:54;;;;;;;;;;;;;;;16.51;55.05;99592.84;2063997;28;20407;-57
2022/03/12 01:07:55;;;;;;;;;;;;;;;16.50;55.14;99583.97;2061637;28;19976;-57
2022/03/12 01:08:56;;;;;;;;;;;;;;;16.49;55.09;99585.00;2054938;28;19969;-58
2022/03/12 01:09:59;;;;;;;;;;;;;;;16.47;55.07;99584.31;2063459;28;20786;-56
2022/03/12 01:11:00;;;;;;;;;;;;;;;16.48;55.22;99579.78;2063066;28;20412;-59
2022/03/12 01:12:02;;;;;;;;;;;;;;;16.46;55.02;99574.59;2062308;28;19929;-56
2022/03/12 01:13:03;;;;;;;;;;;;;;;16.46;55.09;99573.75;2063087;28;20311;-58
2022/03/12 01:14:04;;;;;;;;;;;;;;;16.46;55.11;99579.09;2062687;28;20009;-57
2022/03/12 01:15:06;;;;;;;;;;;;;;;16.45;55.10;99575.59;2060653;28;19933;-58
2022/03/12 01:16:08;;;;;;;;;;;;;;;16.43;55.07;99577.59;2064512;28;19936;-56
2022/03/12 01:17:09;;;;;;;;;;;;;;;16.43;55.14;99574.94;2056051;28;19938;-57
2022/03/12 01:18:12;;;;;;;;;;;;;;;16.41;55.12;99571.59;2060086;28;19937;-58
2022/03/12 01:19:15;;;;;;;;;;;;;;;16.41;55.21;99570.72;2060353;28;19936;-58
2022/03/12 01:20:19;;;;;;;;;;;;;;;16.41;55.14;99574.28;2063320;28;19932;-56
2022/03/12 01:21:22;;;;;;;;;;;;;;;16.40;55.25;99569.06;2063280;28;19941;-57
2022/03/12 01:22:23;;;;;;;;;;;;;;;16.39;55.29;99567.41;2061066;28;20445;-58
2022/03/12 01:23:26;;;;;;;;;;;;;;;16.39;55.27;99562.06;2060341;28;20283;-58
2022/03/12 01:24:28;;;;;;;;;;;;;;;16.37;55.27;99564.06;2062792;28;19932;-58
2022/03/12 01:25:29;;;;;;;;;;;;;;;16.38;55.16;99560.38;2061607;28;19936;-58
2022/03/12 01:26:30;;;;;;;;;;;;;;;16.36;55.22;99557.03;2062299;28;19930;-58
2022/03/12 01:27:31;;;;;;;;;;;;;;;16.35;55.26;99550.00;2063353;28;19933;-59
2022/03/12 01:28:32;;;;;;;;;;;;;;;16.35;55.20;99550.00;2051556;28;19929;-56
2022/03/12 01:29:33;;;;;;;;;;;;;;;16.34;55.31;99551.00;2063947;28;19929;-57
2022/03/12 01:30:34;;;;;;;;;;;;;;;16.33;55.19;99543.97;2063262;28;19941;-58
2022/03/12 01:31:36;;;;;;;;;;;;;;;16.33;55.38;99541.31;2061455;28;19929;-59
2022/03/12 01:32:37;;;;;;;;;;;;;;;16.30;55.29;99537.94;2062933;28;19926;-58
2022/03/12 01:33:39;;;;;;;;;;;;;;;16.31;55.21;99544.13;2062190;28;19935;-59
2022/03/12 01:34:40;;;;;;;;;;;;;;;16.29;55.30;99541.63;2059817;28;19933;-58
2022/03/12 01:35:41;;;;;;;;;;;;;;;16.30;55.36;99539.81;2063215;28;19929;-58
2022/03/12 01:36:44;;;;;;;;;;;;;;;16.30;55.32;99545.16;2060346;28;19930;-59
2022/03/12 01:37:45;;;;;;;;;;;;;;;16.28;55.32;99541.78;2056816;28;20233;-59
2022/03/12 01:38:48;;;;;;;;;;;;;;;16.28;55.39;99545.31;2063179;28;19932;-59
2022/03/12 01:39:49;;;;;;;;;;;;;;;16.28;55.46;99539.94;2062669;28;20707;-59
2022/03/12 01:40:50;;;;;;;;;;;;;;;16.27;55.36;99537.47;2059865;28;20500;-58
2022/03/12 01:41:52;;;;;;;;;;;;;;;16.26;55.37;99533.91;2061652;28;19936;-59
2022/03/12 01:42:53;;;;;;;;;;;;;;;16.26;55.38;99533.09;2062954;28;19925;-58
2022/03/12 01:43:56;;;;;;;;;;;;;;;16.25;55.29;99532.25;2062185;28;19929;-58
2022/03/12 01:44:58;;;;;;;;;;;;;;;16.25;55.42;99531.44;2062809;28;20435;-58
2022/03/12 01:46:01;;;;;;;;;;;;;;;16.24;55.40;99533.28;2062922;28;20418;-58
2022/03/12 01:47:07;;;;;;;;;;;;;;;16.24;55.34;99532.41;2053890;28;20044;-59
2022/03/12 01:48:08;;;;;;;;;;;;;;;16.23;55.38;99525.38;2059421;28;20454;-58
2022/03/12 01:49:11;;;;;;;;;;;;;;;16.22;55.44;99527.25;2062049;28;19937;-56
2022/03/12 01:50:11;;;;;;;;;;;;;;;16.21;55.41;99524.72;2061314;28;19925;-55
2022/03/12 01:51:13;;;;;;;;;;;;;;;16.21;55.35;99532.75;2059941;28;20419;-58
2022/03/12 01:52:15;;;;;;;;;;;;;;;16.19;55.35;99524.06;2061568;28;19937;-57
2022/03/12 01:53:16;;;;;;;;;;;;;;;16.19;55.45;99522.22;2062843;28;22228;-56
2022/03/12 01:54:19;;;;;;;;;;;;;;;16.17;55.42;99516.19;2060723;28;19934;-58
2022/03/12 01:55:21;;;;;;;;;;;;;;;16.19;55.40;99524.91;2056374;28;20359;-57
2022/03/12 01:56:26;;;;;;;;;;;;;;;16.18;55.50;99522.38;2063360;28;20007;-55
2022/03/12 01:57:28;;;;;;;;;;;;;;;16.17;55.48;99518.03;2063546;28;19929;-56
2022/03/12 01:58:28;;;;;;;;;;;;;;;16.15;55.47;99520.88;2061747;28;19967;-57
2022/03/12 01:59:30;;;;;;;;;;;;;;;16.14;55.48;99519.19;2061322;28;20408;-57
2022/03/12 02:00:41;;;;;;;;;;;;;;;16.13;55.43;99520.22;2060167;28;20296;-55
2022/03/12 02:01:43;;;;;;;;;;;;;;;16.12;55.44;99521.19;2056093;28;19925;-57
2022/03/12 02:02:43;;;;;;;;;;;;;;;16.12;55.43;99523.88;2057114;28;19949;-58
2022/03/12 02:03:46;;;;;;;;;;;;;;;16.13;55.43;99530.06;2063137;28;19930;-57
2022/03/12 02:04:52;;;;;;;;;;;;;;;16.12;55.55;99533.75;2062154;28;19929;-58
2022/03/12 02:05:53;;;;;;;;;;;;;;;16.11;55.44;99526.72;2061222;28;19938;-57
2022/03/12 02:06:54;;;;;;;;;;;;;;;16.09;55.47;99530.38;2059292;28;19972;-58
2022/03/12 02:07:59;;;;;;;;;;;;;;;16.09;55.55;99529.56;2062881;28;20292;-57
2022/03/12 02:08:59;;;;;;;;;;;;;;;16.09;55.57;99534.91;2059504;28;19934;-60
2022/03/12 02:10:01;;;;;;;;;;;;;;;16.08;55.49;99530.56;2061211;28;20000;-60
2022/03/12 02:11:07;;;;;;;;;;;;;;;16.06;55.50;99524.53;2052504;28;20037;-55
2022/03/12 02:12:09;;;;;;;;;;;;;;;16.06;55.63;99528.06;2062373;28;20493;-57
2022/03/12 02:13:09;;;;;;;;;;;;;;;16.07;55.56;99531.56;2061442;28;19960;-57
2022/03/12 02:14:12;;;;;;;;;;;;;;;16.05;55.54;99533.59;2060339;28;19983;-58
2022/03/12 02:15:13;;;;;;;;;;;;;;;16.05;55.68;99536.25;2053920;28;19933;-58
2022/03/12 02:16:15;;;;;;;;;;;;;;;16.04;55.62;99535.41;2059827;28;19925;-57
2022/03/12 02:17:15;;;;;;;;;;;;;;;16.04;55.61;99542.59;2062633;28;19969;-57
2022/03/12 02:18:17;;;;;;;;;;;;;;;16.03;55.60;99538.25;2062192;28;19940;-57
2022/03/12 02:19:17;;;;;;;;;;;;;;;16.03;55.57;99538.25;2060222;28;19929;-55
2022/03/12 02:20:21;;;;;;;;;;;;;;;16.01;55.61;99545.59;2060301;28;19930;-55
2022/03/12 02:21:29;;;;;;;;;;;;;;;15.99;55.64;99543.09;2061586;28;20320;-58
2022/03/12 02:22:31;;;;;;;;;;;;;;;16.00;55.76;99541.25;2062785;28;20390;-57
2022/03/12 02:23:44;;;;;;;;;;;;;;;16.00;55.53;99541.25;2052354;28;20181;-58
2022/03/12 02:24:46;;;;;;;;;;;;;;;15.99;55.66;99542.25;2061690;28;20446;-57
2022/03/12 02:25:47;;;;;;;;;;;;;;;15.98;55.67;99543.25;2062510;28;20218;-58
2022/03/12 02:26:48;;;;;;;;;;;;;;;15.97;55.75;99546.94;2060756;28;19937;-58
2022/03/12 02:27:49;;;;;;;;;;;;;;;15.96;55.74;99547.94;2060281;28;19935;-58
2022/03/12 02:28:50;;;;;;;;;;;;;;;15.96;55.77;99550.59;2062621;28;19984;-58
2022/03/12 02:29:52;;;;;;;;;;;;;;;15.96;55.71;99545.25;2059719;28;20352;-58
2022/03/12 02:30:55;;;;;;;;;;;;;;;15.95;55.63;99544.41;2057316;28;22476;-59
2022/03/12 02:32:00;;;;;;;;;;;;;;;15.94;55.80;99537.41;2059312;28;20380;-59
2022/03/12 02:33:01;;;;;;;;;;;;;;;15.94;55.74;99541.94;2060898;28;19930;-56
2022/03/12 02:34:07;;;;;;;;;;;;;;;15.93;55.71;99534.88;2063296;28;19926;-53
2022/03/12 02:35:10;;;;;;;;;;;;;;;15.92;55.82;99539.41;2058764;28;20283;-56
2022/03/12 02:36:12;;;;;;;;;;;;;;;15.92;55.79;99533.22;2060962;28;19933;-57
2022/03/12 02:37:27;;;;;;;;;;;;;;;15.92;55.82;99533.22;2059032;28;20366;-56
2022/03/12 02:38:30;;;;;;;;;;;;;;;15.91;55.64;99534.19;2062739;28;19925;-56
2022/03/12 02:39:34;;;;;;;;;;;;;;;15.90;55.71;99532.53;2055909;28;19929;-57
2022/03/12 02:40:36;;;;;;;;;;;;;;;15.88;55.78;99532.72;2060948;28;19929;-57
2022/03/12 02:41:36;;;;;;;;;;;;;;;15.89;55.80;99525.53;2062439;28;20306;-58
2022/03/12 02:42:39;;;;;;;;;;;;;;;15.87;55.77;99525.69;2060139;28;20148;-55
2022/03/12 02:43:43;;;;;;;;;;;;;;;15.87;55.83;99531.03;2062044;28;19934;-57
2022/03/12 02:44:45;;;;;;;;;;;;;;;15.86;55.80;99530.19;2061383;28;20463;-58
2022/03/12 02:45:48;;;;;;;;;;;;;;;15.86;55.78;99540.06;2060469;28;19926;-53
2022/03/12 02:47:04;;;;;;;;;;;;;;;15.84;55.75;99526.84;2059754;28;19933;-58
2022/03/12 02:48:09;;;;;;;;;;;;;;;15.84;55.90;99532.19;2056691;28;19929;-58
2022/03/12 02:49:09;;;;;;;;;;;;;;;15.83;55.89;99533.19;2061724;28;20381;-56
2022/03/12 02:50:14;;;;;;;;;;;;;;;15.82;55.92;99522.66;2060845;28;19979;-57
2022/03/12 02:51:16;;;;;;;;;;;;;;;15.82;55.84;99530.66;2058940;28;20030;-58
2022/03/12 02:52:18;;;;;;;;;;;;;;;15.81;55.85;99531.69;2060082;28;20076;-58
2022/03/12 02:53:19;;;;;;;;;;;;;;;15.80;55.83;99528.19;2060261;28;19979;-56
2022/03/12 02:54:21;;;;;;;;;;;;;;;15.80;55.79;99528.19;2060346;28;20307;-57
2022/03/12 02:55:23;;;;;;;;;;;;;;;15.80;55.91;99525.50;2061311;28;20415;-57
2022/03/12 02:56:25;;;;;;;;;;;;;;;15.78;55.90;99530.16;2059053;28;20415;-56
2022/03/12 02:57:27;;;;;;;;;;;;;;;15.77;55.97;99525.84;2058793;28;19929;-57
2022/03/12 02:58:29;;;;;;;;;;;;;;;15.78;55.89;99526.66;2061902;28;19934;-56
2022/03/12 02:59:30;;;;;;;;;;;;;;;15.77;55.99;99519.66;2062465;28;19937;-59
2022/03/12 03:00:34;;;;;;;;;;;;;;;15.76;56.06;99523.31;2060689;28;20423;-56
2022/03/12 03:01:35;;;;;;;;;;;;;;;15.75;55.94;99521.66;2059576;28;20012;-56
2022/03/12 03:02:40;;;;;;;;;;;;;;;15.74;55.88;99520.81;2062179;28;20450;-57
2022/03/12 03:03:41;;;;;;;;;;;;;;;15.76;55.99;99529.50;2060100;28;19937;-58
2022/03/12 03:04:43;;;;;;;;;;;;;;;15.73;56.04;99513.78;2060027;28;20396;-56
2022/03/12 03:05:46;;;;;;;;;;;;;;;15.73;55.98;99520.97;2050865;28;22744;-55
2022/03/12 03:06:48;;;;;;;;;;;;;;;15.73;56.04;99515.63;2063153;28;19926;-57
2022/03/12 03:07:54;;;;;;;;;;;;;;;15.71;56.03;99521.16;2064023;28;19930;-55
2022/03/12 03:08:56;;;;;;;;;;;;;;;15.70;56.11;99511.44;2061119;28;19936;-57
2022/03/12 03:09:57;;;;;;;;;;;;;;;15.69;56.05;99517.78;2053193;28;19933;-56
2022/03/12 03:10:59;;;;;;;;;;;;;;;15.69;56.05;99522.31;2063016;28;19936;-54
2022/03/12 03:12:03;;;;;;;;;;;;;;;15.68;56.05;99520.56;2061858;28;19940;-57
2022/03/12 03:13:15;;;;;;;;;;;;;;;15.68;56.09;99524.13;2062963;28;20000;-56
2022/03/12 03:14:17;;;;;;;;;;;;;;;15.67;56.04;99524.25;2063321;28;19934;-58
2022/03/12 03:15:18;;;;;;;;;;;;;;;15.67;56.08;99525.09;2062649;28;19930;-56
2022/03/12 03:16:21;;;;;;;;;;;;;;;15.67;56.19;99529.63;2064111;28;20478;-54
2022/03/12 03:17:22;;;;;;;;;;;;;;;15.65;56.12;99516.38;2059507;28;19980;-57
2022/03/12 03:18:25;;;;;;;;;;;;;;;15.64;56.16;99526.25;2058014;28;19934;-56
2022/03/12 03:19:28;;;;;;;;;;;;;;;15.63;56.23;99524.59;2065006;28;20184;-56
2022/03/12 03:20:29;;;;;;;;;;;;;;;15.63;56.18;99521.09;2063547;28;19930;-58
2022/03/12 03:21:33;;;;;;;;;;;;;;;15.62;56.06;99522.06;2063804;28;19925;-56
2022/03/12 03:22:33;;;;;;;;;;;;;;;15.63;56.17;99523.75;2060613;28;22055;-56
2022/03/12 03:23:35;;;;;;;;;;;;;;;15.61;56.23;99521.22;2063771;28;20033;-57
2022/03/12 03:24:35;;;;;;;;;;;;;;;15.62;55.98;99522.06;2061836;28;20053;-57
2022/03/12 03:25:38;;;;;;;;;;;;;;;15.61;56.18;99520.41;2059822;28;19933;-57
2022/03/12 03:26:57;;;;;;;;;;;;;;;15.60;56.23;99516.03;2056339;28;20440;-57
2022/03/12 03:27:57;;;;;;;;;;;;;;;15.58;56.18;99515.38;2066814;28;19933;-56
2022/03/12 03:28:59;;;;;;;;;;;;;;;15.58;56.25;99526.91;2065623;28;20169;-54
2022/03/12 03:30:00;;;;;;;;;;;;;;;15.58;56.17;99513.53;2060120;28;20008;-59
2022/03/12 03:31:02;;;;;;;;;;;;;;;15.57;56.33;99519.03;2061020;28;19934;-58
2022/03/12 03:32:05;;;;;;;;;;;;;;;15.58;56.25;99526.09;2065379;28;19929;-56
2022/03/12 03:33:07;;;;;;;;;;;;;;;15.56;56.27;99525.41;2060957;28;20065;-59
2022/03/12 03:34:08;;;;;;;;;;;;;;;15.55;56.32;99521.06;2057563;28;19937;-55
2022/03/12 03:35:09;;;;;;;;;;;;;;;15.55;56.25;99526.41;2066107;28;19932;-57
2022/03/12 03:36:10;;;;;;;;;;;;;;;15.55;56.28;99521.06;2067895;28;20394;-56
2022/03/12 03:37:11;;;;;;;;;;;;;;;15.55;56.30;99523.72;2061606;28;19937;-55
2022/03/12 03:38:13;;;;;;;;;;;;;;;15.54;56.34;99528.22;2062787;28;19925;-59
2022/03/12 03:39:14;;;;;;;;;;;;;;;15.54;56.34;99530.06;2063457;28;20338;-55
2022/03/12 03:40:15;;;;;;;;;;;;;;;15.53;56.23;99533.75;2059944;28;19930;-56
2022/03/12 03:41:16;;;;;;;;;;;;;;;15.52;56.34;99532.09;2062555;28;19933;-58
2022/03/12 03:42:21;;;;;;;;;;;;;;;15.51;56.34;99525.03;2064336;28;19983;-56
2022/03/12 03:43:23;;;;;;;;;;;;;;;15.50;56.34;99526.88;2053601;28;19930;-57
2022/03/12 03:44:27;;;;;;;;;;;;;;;15.50;56.17;99531.41;2063046;28;20036;-52
2022/03/12 03:45:28;;;;;;;;;;;;;;;15.48;56.42;99531.53;2064067;28;19929;-58
2022/03/12 03:46:30;;;;;;;;;;;;;;;15.48;56.30;99539.56;2063941;28;19933;-52
2022/03/12 03:47:30;;;;;;;;;;;;;;;15.50;56.26;99526.06;2067666;28;19933;-53
2022/03/12 03:48:37;;;;;;;;;;;;;;;15.51;56.24;99530.38;2062712;28;19930;-57
2022/03/12 03:49:38;;;;;;;;;;;;;;;15.50;56.15;99532.22;2061233;28;19933;-59
2022/03/12 03:50:40;;;;;;;;;;;;;;;15.53;56.11;99533.75;2063414;28;19930;-55
2022/03/12 03:51:42;;;;;;;;;;;;;;;15.55;56.18;99537.09;2061806;28;19965;-57
2022/03/12 03:52:43;;;;;;;;;;;;;;;15.56;56.11;99522.72;2053861;28;19937;-57
2022/03/12 03:53:44;;;;;;;;;;;;;;;15.57;56.04;99535.09;2064870;28;20474;-58
2022/03/12 03:54:45;;;;;;;;;;;;;;;15.58;56.06;99537.59;2065232;28;19930;-58
2022/03/12 03:55:47;;;;;;;;;;;;;;;15.58;56.01;99537.59;2061975;28;19978;-57
2022/03/12 03:56:47;;;;;;;;;;;;;;;15.59;56.14;99536.59;2066129;28;19926;-55
2022/03/12 03:57:50;;;;;;;;;;;;;;;15.61;56.16;99539.13;2063583;28;19925;-56
2022/03/12 03:58:51;;;;;;;;;;;;;;;15.62;56.11;99543.47;2061606;28;19926;-59
2022/03/12 03:59:52;;;;;;;;;;;;;;;15.63;56.05;99539.81;2066904;28;19934;-57
2022/03/12 04:00:54;;;;;;;;;;;;;;;15.62;56.11;99533.59;2055428;28;19933;-56
2022/03/12 04:01:56;;;;;;;;;;;;;;;15.64;56.02;99538.78;2063325;28;20409;-54
2022/03/12 04:03:01;;;;;;;;;;;;;;;15.63;56.08;99534.47;2059903;28;20164;-56
2022/03/12 04:04:03;;;;;;;;;;;;;;;15.64;56.04;99531.59;2066589;28;20027;-58
2022/03/12 04:05:04;;;;;;;;;;;;;;;15.65;56.03;99533.25;2064801;28;19930;-57
2022/03/12 04:06:06;;;;;;;;;;;;;;;15.66;56.10;99539.47;2060509;28;19929;-56
2022/03/12 04:07:07;;;;;;;;;;;;;;;15.65;56.09;99532.44;2064171;28;19939;-57
2022/03/12 04:08:09;;;;;;;;;;;;;;;15.66;56.02;99534.13;2063264;28;20377;-58
2022/03/12 04:09:10;;;;;;;;;;;;;;;15.67;56.04;99542.97;2052758;28;19979;-57
2022/03/12 04:10:12;;;;;;;;;;;;;;;15.67;56.01;99541.16;2064440;28;19979;-58
2022/03/12 04:11:14;;;;;;;;;;;;;;;15.67;55.98;99537.63;2065655;28;19983;-58
2022/03/12 04:12:15;;;;;;;;;;;;;;;15.67;56.14;99533.13;2063486;28;19929;-57
2022/03/12 04:13:18;;;;;;;;;;;;;;;15.68;56.05;99532.13;2066494;28;19940;-55
2022/03/12 04:14:20;;;;;;;;;;;;;;;15.68;56.04;99534.81;2064843;28;19926;-57
2022/03/12 04:15:21;;;;;;;;;;;;;;;15.69;56.13;99533.84;2063274;28;19929;-58
2022/03/12 04:16:23;;;;;;;;;;;;;;;15.68;56.08;99529.47;2065154;28;20412;-57
2022/03/12 04:17:23;;;;;;;;;;;;;;;15.68;55.96;99532.13;2064851;28;20396;-57
2022/03/12 04:18:25;;;;;;;;;;;;;;;15.69;56.09;99531.16;2055674;28;19930;-56
2022/03/12 04:19:28;;;;;;;;;;;;;;;15.69;55.96;99538.34;2065681;28;19930;-56
2022/03/12 04:20:30;;;;;;;;;;;;;;;15.69;56.01;99536.50;2065022;28;19930;-57
2022/03/12 04:21:30;;;;;;;;;;;;;;;15.70;56.08;99535.50;2061253;28;19926;-55
2022/03/12 04:22:34;;;;;;;;;;;;;;;15.69;55.94;99536.50;2065590;28;20434;-56
2022/03/12 04:23:35;;;;;;;;;;;;;;;15.70;56.01;99540.84;2059823;28;19941;-55
2022/03/12 04:24:37;;;;;;;;;;;;;;;15.71;55.96;99537.19;2061025;28;20588;-55
2022/03/12 04:25:37;;;;;;;;;;;;;;;15.70;55.96;99534.66;2056651;28;19935;-55
2022/03/12 04:26:40;;;;;;;;;;;;;;;15.70;55.97;99542.69;2062429;28;19929;-58
2022/03/12 04:27:42;;;;;;;;;;;;;;;15.71;55.93;99547.03;2064577;28;20445;-56
2022/03/12 04:28:46;;;;;;;;;;;;;;;15.71;55.96;99542.53;2061822;28;19975;-58
2022/03/12 04:29:46;;;;;;;;;;;;;;;15.70;56.04;99538.16;2062811;28;19930;-55
2022/03/12 04:30:48;;;;;;;;;;;;;;;15.71;56.04;99542.53;2062873;28;19926;-57
2022/03/12 04:31:50;;;;;;;;;;;;;;;15.71;55.87;99552.38;2061548;28;19930;-57
2022/03/12 04:32:50;;;;;;;;;;;;;;;15.70;55.86;99548.88;2063497;28;19932;-56
2022/03/12 04:33:52;;;;;;;;;;;;;;;15.70;55.84;99546.19;2064605;28;19976;-57
2022/03/12 04:34:52;;;;;;;;;;;;;;;15.71;55.92;99547.88;2062267;28;20388;-57
2022/03/12 04:35:54;;;;;;;;;;;;;;;15.72;55.83;99546.03;2052373;28;20227;-57
2022/03/12 04:36:56;;;;;;;;;;;;;;;15.70;55.88;99543.53;2064700;28;20076;-58
2022/03/12 04:37:56;;;;;;;;;;;;;;;15.71;55.84;99547.88;2066445;28;19925;-56
2022/03/12 04:38:58;;;;;;;;;;;;;;;15.71;55.88;99547.88;2059669;28;20411;-55
2022/03/12 04:39:59;;;;;;;;;;;;;;;15.71;55.96;99544.34;2061564;28;20415;-57
2022/03/12 04:41:00;;;;;;;;;;;;;;;15.70;55.84;99548.88;2061224;28;19932;-57
2022/03/12 04:42:01;;;;;;;;;;;;;;;15.70;55.97;99543.53;2063204;28;20005;-55
2022/03/12 04:43:02;;;;;;;;;;;;;;;15.70;56.18;99545.38;2068802;28;19925;-57
2022/03/12 04:44:06;;;;;;;;;;;;;;;15.70;55.94;99540.84;2058964;28;19933;-56
2022/03/12 04:45:08;;;;;;;;;;;;;;;15.70;55.84;99542.69;2064185;28;19930;-56
2022/03/12 04:46:08;;;;;;;;;;;;;;;15.69;55.86;99539.19;2064716;28;19925;-56
2022/03/12 04:47:11;;;;;;;;;;;;;;;15.70;56.00;99542.69;2063768;28;20000;-54
2022/03/12 04:48:12;;;;;;;;;;;;;;;15.69;55.88;99533.84;2061388;28;20060;-55
2022/03/12 04:49:14;;;;;;;;;;;;;;;15.69;55.80;99544.53;2062054;28;19937;-56
2022/03/12 04:50:16;;;;;;;;;;;;;;;15.68;55.94;99537.50;2062852;28;20277;-55
2022/03/12 04:51:18;;;;;;;;;;;;;;;15.70;55.87;99542.69;2060158;28;20660;-58
2022/03/12 04:52:18;;;;;;;;;;;;;;;15.69;55.89;99552.56;2052507;28;20175;-57
2022/03/12 04:53:21;;;;;;;;;;;;;;;15.68;55.81;99537.50;2063455;28;19934;-57
2022/03/12 04:54:23;;;;;;;;;;;;;;;15.68;55.89;99541.97;2062019;28;19925;-56
2022/03/12 04:55:26;;;;;;;;;;;;;;;15.67;55.80;99538.47;2059207;28;19937;-57
2022/03/12 04:56:28;;;;;;;;;;;;;;;15.67;55.87;99541.16;2064256;28;19926;-56
2022/03/12 04:57:28;;;;;;;;;;;;;;;15.68;55.87;99547.31;2062408;28;19958;-56
2022/03/12 04:58:30;;;;;;;;;;;;;;;15.67;55.80;99537.63;2062387;28;19937;-56
2022/03/12 04:59:32;;;;;;;;;;;;;;;15.66;55.76;99539.47;2056181;28;19937;-55
2022/03/12 05:00:36;;;;;;;;;;;;;;;15.67;55.89;99540.31;2065752;28;19936;-56
2022/03/12 05:01:37;;;;;;;;;;;;;;;15.65;55.75;99530.59;2066174;28;19940;-54
2022/03/12 05:02:38;;;;;;;;;;;;;;;15.64;55.84;99536.94;2062178;28;20023;-56
2022/03/12 05:03:42;;;;;;;;;;;;;;;15.65;55.93;99551.16;2063552;28;19987;-57
2022/03/12 05:04:44;;;;;;;;;;;;;;;15.65;55.92;99548.47;2062938;28;20307;-54
2022/03/12 05:05:45;;;;;;;;;;;;;;;15.66;55.92;99550.19;2063415;28;19930;-57
2022/03/12 05:06:46;;;;;;;;;;;;;;;15.65;55.93;99551.16;2064132;28;19941;-57
2022/03/12 05:07:48;;;;;;;;;;;;;;;15.65;55.93;99551.16;2066739;28;19930;-56
2022/03/12 05:08:49;;;;;;;;;;;;;;;15.66;56.03;99550.19;2055390;28;20396;-57
2022/03/12 05:09:51;;;;;;;;;;;;;;;15.67;55.82;99551.84;2060425;28;19930;-56
2022/03/12 05:10:53;;;;;;;;;;;;;;;15.68;55.97;99545.50;2062501;28;19933;-57
2022/03/12 05:11:55;;;;;;;;;;;;;;;15.71;56.06;99555.91;2057070;28;20523;-58
2022/03/12 05:12:58;;;;;;;;;;;;;;;15.72;56.02;99546.88;2060606;28;19926;-56
2022/03/12 05:13:59;;;;;;;;;;;;;;;15.75;56.18;99549.22;2061972;28;19929;-58
2022/03/12 05:15:02;;;;;;;;;;;;;;;15.76;56.06;99553.56;2065281;28;19949;-62
2022/03/12 05:16:05;;;;;;;;;;;;;;;15.80;56.05;99554.09;2059596;28;20885;-56
2022/03/12 05:17:08;;;;;;;;;;;;;;;15.81;56.20;99556.59;2059776;28;20324;-55
2022/03/12 05:18:12;;;;;;;;;;;;;;;15.85;56.31;99557.09;2063931;28;19964;-57
2022/03/12 05:19:14;;;;;;;;;;;;;;;15.89;56.07;99554.94;2059766;28;19929;-55
2022/03/12 05:20:20;;;;;;;;;;;;;;;15.92;56.17;99558.13;2062700;28;20358;-58
2022/03/12 05:21:20;;;;;;;;;;;;;;;15.96;56.10;99558.63;2062651;28;19933;-56
2022/03/12 05:22:22;;;;;;;;;;;;;;;15.98;56.07;99559.31;2049915;28;20185;-56
2022/03/12 05:23:23;;;;;;;;;;;;;;;16.01;56.11;99565.16;2064934;28;19999;-58
2022/03/12 05:24:24;;;;;;;;;;;;;;;16.04;56.03;99564.84;2065012;28;20153;-57